createdAt,value
2023-05-04T00:00:54.434Z,10.25
2023-05-04T00:03:24.690Z,9.73
2023-05-04T00:05:52.132Z,9.00
2023-05-04T00:08:28.987Z,9.82
2023-05-04T00:10:58.164Z,9.85
2023-05-04T00:13:25.153Z,9.90
2023-05-04T00:15:55.298Z,8.73
2023-05-04T00:18:24.207Z,8.80
2023-05-04T00:21:07.560Z,9.05
2023-05-04T00:23:35.566Z,8.48
2023-05-04T00:26:04.879Z,8.85
2023-05-04T00:28:35.493Z,8.77
2023-05-04T00:31:05.210Z,9.00
2023-05-04T00:33:33.394Z,8.93
2023-05-04T00:36:02.147Z,8.68
2023-05-04T00:38:29.543Z,9.15
2023-05-04T00:40:58.501Z,9.55
2023-05-04T00:43:27.339Z,8.90
2023-05-04T00:46:02.037Z,8.77
2023-05-04T00:48:32.623Z,9.30
2023-05-04T00:51:04.358Z,9.63
2023-05-04T00:53:31.325Z,9.90
2023-05-04T00:56:00.751Z,9.23
2023-05-04T00:58:29.161Z,9.45
2023-05-04T01:01:00.649Z,9.80
2023-05-04T01:03:30.555Z,9.35
2023-05-04T01:06:07.159Z,10.32
2023-05-04T01:08:46.027Z,9.25
2023-05-04T01:11:22.316Z,10.18
2023-05-04T01:13:53.260Z,10.23
2023-05-04T01:16:22.097Z,9.85
2023-05-04T01:18:49.089Z,9.52
2023-05-04T01:21:17.300Z,10.50
2023-05-04T01:23:49.096Z,10.20
2023-05-04T01:26:30.239Z,9.52
2023-05-04T01:29:28.028Z,9.98
2023-05-04T01:32:01.970Z,9.60
2023-05-04T01:34:38.251Z,10.95
2023-05-04T01:37:05.929Z,10.48
2023-05-04T01:39:33.290Z,10.32
2023-05-04T01:42:00.218Z,9.38
2023-05-04T01:44:32.491Z,11.10
2023-05-04T01:47:04.648Z,9.03
2023-05-04T01:49:32.858Z,9.93
2023-05-04T01:52:02.084Z,9.05
2023-05-04T01:54:32.094Z,8.48
2023-05-04T01:57:13.300Z,9.43
2023-05-04T02:02:26.001Z,10.25
2023-05-04T02:04:53.640Z,8.50
2023-05-04T02:07:20.435Z,9.20
2023-05-04T02:09:50.057Z,9.00
2023-05-04T02:12:16.887Z,9.00
2023-05-04T02:14:44.686Z,9.18
2023-05-04T02:17:11.848Z,8.50
2023-05-04T02:19:42.105Z,8.35
2023-05-04T02:22:09.306Z,9.20
2023-05-04T02:24:43.702Z,9.48
2023-05-04T02:27:21.473Z,8.85
2023-05-04T02:29:52.260Z,9.30
2023-05-04T02:32:19.764Z,8.35
2023-05-04T02:34:47.552Z,8.25
2023-05-04T02:37:18.222Z,8.38
2023-05-04T02:39:45.350Z,8.15
2023-05-04T02:42:15.909Z,8.35
2023-05-04T02:44:45.817Z,7.88
2023-05-04T02:47:15.318Z,8.57
2023-05-04T02:49:45.650Z,8.18
2023-05-04T02:52:17.609Z,8.70
2023-05-04T02:54:52.996Z,7.72
2023-05-04T02:57:22.920Z,8.23
2023-05-04T02:59:51.772Z,7.88
2023-05-04T03:02:20.299Z,7.50
2023-05-04T03:04:49.793Z,7.38
2023-05-04T03:07:17.578Z,8.25
2023-05-04T03:09:47.700Z,7.25
2023-05-04T03:12:19.594Z,7.60
2023-05-04T03:14:51.380Z,7.20
2023-05-04T03:17:18.665Z,7.25
2023-05-04T03:19:51.950Z,7.65
2023-05-04T03:22:21.598Z,7.38
2023-05-04T03:24:53.004Z,7.55
2023-05-04T03:27:21.304Z,7.80
2023-05-04T03:29:52.264Z,6.72
2023-05-04T03:32:25.609Z,7.88
2023-05-04T03:34:54.140Z,7.38
2023-05-04T03:37:21.908Z,7.80
2023-05-04T03:39:49.583Z,8.25
2023-05-04T03:42:19.524Z,8.27
2023-05-04T03:44:47.252Z,8.38
2023-05-04T03:47:14.760Z,8.30
2023-05-04T03:49:43.823Z,7.75
2023-05-04T03:52:10.727Z,8.18
2023-05-04T03:57:23.628Z,7.72
2023-05-04T03:59:51.610Z,7.90
2023-05-04T04:02:20.528Z,8.02
2023-05-04T04:04:48.574Z,7.50
2023-05-04T04:17:09.195Z,7.28
2023-05-04T04:19:47.051Z,6.38
2023-05-04T04:22:27.719Z,6.85
2023-05-04T04:25:03.819Z,6.47
2023-05-04T04:27:57.319Z,6.72
2023-05-04T04:30:27.382Z,6.40
2023-05-04T04:35:47.084Z,6.95
2023-05-04T04:38:27.503Z,6.38
2023-05-04T04:40:56.060Z,6.53
2023-05-04T04:43:26.875Z,6.85
2023-05-04T04:46:01.590Z,5.82
2023-05-04T04:48:32.718Z,5.65
2023-05-04T04:51:05.542Z,5.30
2023-05-04T04:56:09.263Z,5.35
2023-05-04T05:04:29.112Z,5.22
2023-05-04T05:07:11.698Z,5.28
2023-05-04T05:09:43.784Z,5.40
2023-05-04T05:12:10.688Z,4.97
2023-05-04T05:14:38.041Z,5.10
2023-05-04T05:17:16.838Z,6.57
2023-05-04T05:19:52.018Z,5.90
2023-05-04T05:22:20.144Z,5.53
2023-05-04T05:24:47.241Z,5.75
2023-05-04T05:27:14.179Z,5.75
2023-05-04T05:29:41.921Z,5.57
2023-05-04T05:32:12.032Z,5.22
2023-05-04T05:34:42.217Z,5.03
2023-05-04T05:37:11.118Z,4.75
2023-05-04T05:39:39.265Z,5.03
2023-05-04T05:42:10.338Z,4.43
2023-05-04T05:44:40.419Z,4.88
2023-05-04T05:47:08.440Z,4.88
2023-05-04T05:49:35.603Z,5.70
2023-05-04T05:52:03.771Z,5.07
2023-05-04T05:54:32.137Z,5.18
2023-05-04T05:57:02.788Z,5.45
2023-05-04T05:59:29.600Z,5.35
2023-05-04T06:01:58.986Z,4.97
2023-05-04T06:04:26.209Z,5.47
2023-05-04T06:09:35.141Z,5.40
2023-05-04T06:12:02.164Z,5.43
2023-05-04T06:14:36.280Z,4.85
2023-05-04T06:17:09.200Z,5.43
2023-05-04T06:19:37.719Z,5.10
2023-05-04T06:22:06.421Z,5.10
2023-05-04T06:24:34.852Z,5.38
2023-05-04T06:27:02.434Z,4.72
2023-05-04T06:29:31.670Z,4.90
2023-05-04T06:31:59.099Z,5.82
2023-05-04T06:34:25.971Z,5.07
2023-05-04T06:36:53.098Z,4.85
2023-05-04T06:39:21.887Z,4.63
2023-05-04T06:41:48.640Z,4.95
2023-05-04T06:44:18.539Z,5.75
2023-05-04T06:46:48.369Z,4.93
2023-05-04T06:49:18.564Z,4.80
2023-05-04T06:51:46.278Z,4.63
2023-05-04T06:54:18.310Z,4.50
2023-05-04T06:56:45.616Z,5.95
2023-05-04T06:59:15.382Z,4.55
2023-05-04T07:01:44.517Z,4.68
2023-05-04T07:04:12.156Z,5.22
2023-05-04T07:06:39.818Z,4.60
2023-05-04T07:09:08.370Z,4.88
2023-05-04T07:11:38.954Z,5.30
2023-05-04T07:14:07.931Z,5.13
2023-05-04T07:16:36.785Z,4.60
2023-05-04T07:19:04.657Z,4.68
2023-05-04T07:21:37.392Z,5.13
2023-05-04T07:24:07.019Z,4.90
2023-05-04T07:26:36.185Z,5.57
2023-05-04T07:29:03.069Z,4.53
2023-05-04T07:31:31.584Z,5.00
2023-05-04T07:33:58.734Z,4.45
2023-05-04T07:36:34.658Z,4.40
2023-05-04T07:39:01.783Z,4.80
2023-05-04T07:41:33.053Z,4.38
2023-05-04T07:43:59.829Z,4.82
2023-05-04T07:46:29.332Z,4.88
2023-05-04T07:48:56.750Z,4.05
2023-05-04T07:51:24.029Z,4.45
2023-05-04T07:53:51.542Z,4.20
2023-05-04T07:56:18.307Z,3.50
2023-05-04T07:58:45.374Z,4.13
2023-05-04T08:01:13.968Z,3.60
2023-05-04T08:03:41.820Z,3.92
2023-05-04T08:06:08.990Z,4.25
2023-05-04T08:08:37.348Z,4.15
2023-05-04T08:11:18.628Z,3.38
2023-05-04T08:13:48.805Z,4.15
2023-05-04T08:16:15.671Z,4.50
2023-05-04T08:18:43.525Z,4.55
2023-05-04T08:21:11.959Z,4.03
2023-05-04T08:23:39.789Z,4.95
2023-05-04T08:26:06.532Z,5.38
2023-05-04T08:28:41.966Z,4.85
2023-05-04T08:31:09.356Z,5.30
2023-05-04T08:33:36.121Z,5.30
2023-05-04T08:36:05.426Z,5.00
2023-05-04T08:38:40.020Z,5.03
2023-05-04T08:41:09.213Z,6.18
2023-05-04T08:43:38.542Z,7.95
2023-05-04T08:46:10.909Z,5.43
2023-05-04T08:48:37.941Z,4.70
2023-05-04T08:51:04.922Z,4.70
2023-05-04T08:53:35.424Z,5.20
2023-05-04T08:56:05.367Z,4.75
2023-05-04T08:58:38.253Z,4.57
2023-05-04T09:01:10.518Z,4.97
2023-05-04T09:03:43.579Z,5.13
2023-05-04T09:08:38.444Z,5.53
2023-05-04T09:11:05.547Z,5.70
2023-05-04T09:13:34.347Z,4.60
2023-05-04T09:16:04.143Z,4.53
2023-05-04T09:18:38.261Z,4.07
2023-05-04T09:21:05.549Z,3.72
2023-05-04T09:23:45.649Z,4.28
2023-05-04T09:26:12.494Z,3.65
2023-05-04T09:28:39.637Z,4.03
2023-05-04T09:31:07.676Z,3.85
2023-05-04T09:33:35.743Z,4.50
2023-05-04T09:36:17.822Z,5.78
2023-05-04T09:38:44.731Z,4.80
2023-05-04T09:41:14.958Z,4.78
2023-05-04T09:43:43.984Z,5.18
2023-05-04T09:46:21.869Z,5.57
2023-05-04T09:49:00.557Z,5.07
2023-05-04T09:51:30.697Z,5.00
2023-05-04T09:53:58.361Z,5.10
2023-05-04T09:56:38.918Z,4.32
2023-05-04T09:59:07.194Z,4.68
2023-05-04T10:01:34.253Z,4.28
2023-05-04T10:04:10.266Z,4.63
2023-05-04T10:06:43.027Z,5.10
2023-05-04T10:09:09.866Z,4.68
2023-05-04T10:11:36.711Z,4.13
2023-05-04T10:14:05.739Z,4.05
2023-05-04T10:16:47.780Z,4.20
2023-05-04T10:19:22.643Z,5.03
2023-05-04T10:21:59.540Z,4.68
2023-05-04T10:24:51.744Z,5.07
2023-05-04T10:27:21.701Z,4.85
2023-05-04T10:29:49.492Z,4.43
2023-05-04T10:32:22.387Z,4.38
2023-05-04T10:34:49.738Z,5.18
2023-05-04T10:37:18.211Z,5.82
2023-05-04T10:39:54.622Z,4.43
2023-05-04T10:42:23.984Z,4.78
2023-05-04T10:44:58.479Z,4.72
2023-05-04T10:47:33.107Z,4.70
2023-05-04T10:50:15.796Z,4.22
2023-05-04T10:52:54.392Z,4.20
2023-05-04T10:55:22.393Z,4.25
2023-05-04T10:57:56.573Z,4.13
2023-05-04T11:00:31.708Z,4.05
2023-05-04T11:03:12.833Z,4.10
2023-05-04T11:05:52.403Z,4.28
2023-05-04T11:08:23.337Z,3.88
2023-05-04T11:11:07.132Z,4.00
2023-05-04T11:13:36.821Z,3.83
2023-05-04T11:16:07.074Z,3.80
2023-05-04T11:18:35.016Z,3.50
2023-05-04T11:21:04.811Z,3.83
2023-05-04T11:23:33.796Z,3.83
2023-05-04T11:26:15.130Z,3.80
2023-05-04T11:28:42.916Z,3.70
2023-05-04T11:31:20.570Z,3.40
2023-05-04T11:33:52.681Z,3.85
2023-05-04T11:36:21.536Z,3.65
2023-05-04T11:38:54.265Z,3.88
2023-05-04T11:41:29.891Z,3.95
2023-05-04T11:43:56.738Z,3.33
2023-05-04T11:46:24.033Z,3.70
2023-05-04T11:48:53.099Z,3.58
2023-05-04T11:51:26.140Z,3.88
2023-05-04T11:53:56.009Z,4.30
2023-05-04T11:56:22.994Z,3.40
2023-05-04T11:58:50.488Z,3.88
2023-05-04T12:01:20.837Z,3.47
2023-05-04T12:03:53.822Z,3.85
2023-05-04T12:06:36.661Z,3.75
2023-05-04T12:09:05.288Z,3.57
2023-05-04T12:11:32.533Z,3.15
2023-05-04T12:14:06.758Z,3.00
2023-05-04T12:16:36.877Z,2.97
2023-05-04T12:19:09.760Z,3.05
2023-05-04T12:21:37.284Z,3.20
2023-05-04T12:24:05.477Z,3.55
2023-05-04T12:26:33.616Z,2.92
2023-05-04T12:29:00.531Z,3.10
2023-05-04T12:31:29.451Z,3.58
2023-05-04T12:33:56.354Z,3.15
2023-05-04T12:36:23.264Z,3.10
2023-05-04T12:38:52.918Z,3.28
2023-05-04T12:41:19.843Z,3.20
2023-05-04T12:43:49.408Z,3.15
2023-05-04T12:46:21.535Z,2.63
2023-05-04T12:48:48.616Z,2.88
2023-05-04T12:51:16.824Z,2.90
2023-05-04T12:53:48.299Z,2.40
2023-05-04T12:56:16.535Z,3.00
2023-05-04T12:58:43.475Z,3.05
2023-05-04T13:01:13.175Z,3.08
2023-05-04T13:03:42.341Z,2.83
2023-05-04T13:06:09.579Z,3.28
2023-05-04T13:08:37.362Z,3.60
2023-05-04T13:11:04.370Z,3.22
2023-05-04T13:13:31.748Z,3.25
2023-05-04T13:16:01.426Z,2.83
2023-05-04T13:18:29.059Z,2.70
2023-05-04T13:21:00.069Z,2.92
2023-05-04T13:23:27.321Z,3.03
2023-05-04T13:25:54.604Z,2.42
2023-05-04T13:28:24.098Z,2.65
2023-05-04T13:30:50.953Z,2.38
2023-05-04T13:33:33.880Z,3.00
2023-05-04T13:38:35.921Z,2.63
2023-05-04T13:41:05.377Z,2.70
2023-05-04T13:43:45.949Z,2.90
2023-05-04T13:46:15.376Z,3.08
2023-05-04T13:48:45.145Z,2.53
2023-05-04T13:51:17.339Z,3.17
2023-05-04T13:53:44.529Z,2.72
2023-05-04T13:56:11.328Z,3.20
2023-05-04T13:58:39.810Z,2.90
2023-05-04T14:01:09.149Z,2.97
2023-05-04T14:03:36.500Z,2.90
2023-05-04T14:06:04.391Z,3.08
2023-05-04T14:08:33.207Z,3.63
2023-05-04T14:11:00.567Z,3.05
2023-05-04T14:13:29.251Z,2.67
2023-05-04T14:15:56.633Z,2.83
2023-05-04T14:18:25.318Z,2.75
2023-05-04T14:20:54.601Z,3.05
2023-05-04T14:23:21.753Z,2.80
2023-05-04T14:25:54.069Z,2.90
2023-05-04T14:28:21.290Z,3.13
2023-05-04T14:30:49.384Z,3.03
2023-05-04T14:33:17.755Z,3.08
2023-05-04T14:35:47.961Z,3.03
2023-05-04T14:38:15.560Z,3.28
2023-05-04T14:40:42.598Z,2.88
2023-05-04T14:43:10.494Z,2.58
2023-05-04T14:45:41.040Z,3.00
2023-05-04T14:48:09.070Z,2.88
2023-05-04T14:50:36.144Z,3.00
2023-05-04T14:53:03.344Z,3.05
2023-05-04T14:55:33.617Z,2.67
2023-05-04T14:58:08.150Z,2.80
2023-05-04T15:00:41.021Z,2.97
2023-05-04T15:03:08.046Z,3.40
2023-05-04T15:05:35.706Z,2.78
2023-05-04T15:08:03.788Z,2.95
2023-05-04T15:10:31.087Z,2.83
2023-05-04T15:13:00.872Z,2.95
2023-05-04T15:15:30.593Z,3.15
2023-05-04T15:17:58.575Z,3.70
2023-05-04T15:20:25.763Z,3.10
2023-05-04T15:22:53.948Z,2.95
2023-05-04T15:25:26.830Z,3.70
2023-05-04T15:27:56.879Z,2.60
2023-05-04T15:30:25.712Z,2.80
2023-05-04T15:32:53.382Z,3.10
2023-05-04T15:35:20.494Z,3.22
2023-05-04T15:37:48.102Z,3.15
2023-05-04T15:40:18.039Z,2.88
2023-05-04T15:42:48.544Z,2.83
2023-05-04T15:45:17.123Z,3.40
2023-05-04T15:47:46.184Z,3.40
2023-05-04T15:50:14.499Z,3.30
2023-05-04T15:52:43.024Z,2.90
2023-05-04T15:55:25.524Z,3.53
2023-05-04T15:57:54.517Z,2.78
2023-05-04T16:00:22.666Z,3.28
2023-05-04T16:02:51.081Z,3.30
2023-05-04T16:08:04.580Z,3.00
2023-05-04T16:10:34.995Z,3.22
2023-05-04T16:13:09.797Z,2.60
2023-05-04T16:15:40.083Z,2.63
2023-05-04T16:18:08.304Z,3.25
2023-05-04T16:20:36.363Z,2.90
2023-05-04T16:23:05.901Z,2.92
2023-05-04T16:25:32.948Z,3.17
2023-05-04T16:28:02.540Z,3.15
2023-05-04T16:30:33.115Z,2.80
2023-05-04T16:33:07.394Z,3.00
2023-05-04T16:35:34.941Z,2.88
2023-05-04T16:38:02.837Z,3.00
2023-05-04T16:40:42.979Z,2.90
2023-05-04T16:43:14.985Z,2.80
2023-05-04T16:45:42.143Z,2.70
2023-05-04T16:50:57.066Z,2.35
2023-05-04T16:53:32.095Z,2.47
2023-05-04T16:56:04.227Z,2.47
2023-05-04T17:01:20.782Z,2.70
2023-05-04T17:03:56.141Z,2.63
2023-05-04T17:09:07.139Z,2.67
2023-05-04T17:11:37.467Z,3.03
2023-05-04T17:17:25.526Z,2.33
2023-05-04T17:20:01.130Z,2.28
2023-05-04T17:22:31.724Z,2.08
2023-05-04T17:24:58.937Z,2.75
2023-05-04T17:27:27.193Z,2.88
2023-05-04T17:29:55.970Z,2.60
2023-05-04T17:32:24.653Z,3.58
2023-05-04T17:34:51.835Z,2.83
2023-05-04T17:37:20.531Z,3.60
2023-05-04T17:39:47.755Z,2.97
2023-05-04T17:42:16.094Z,3.33
2023-05-04T17:44:43.031Z,2.60
2023-05-04T17:47:09.845Z,2.97
2023-05-04T17:49:39.894Z,3.10
2023-05-04T17:52:12.039Z,2.92
2023-05-04T17:54:44.792Z,3.08
2023-05-04T17:57:13.671Z,3.58
2023-05-04T18:02:24.099Z,5.18
2023-05-04T18:04:52.007Z,4.55
2023-05-04T18:07:18.730Z,4.47
2023-05-04T18:09:51.227Z,3.70
2023-05-04T18:12:18.076Z,4.32
2023-05-04T18:14:44.928Z,4.10
2023-05-04T18:17:16.517Z,3.65
2023-05-04T18:19:49.443Z,3.50
2023-05-04T18:22:27.218Z,3.70
2023-05-04T18:24:54.549Z,3.80
2023-05-04T18:27:21.783Z,3.33
2023-05-04T18:29:50.138Z,3.50
2023-05-04T18:32:18.522Z,3.55
2023-05-04T18:35:00.151Z,3.63
2023-05-04T18:37:38.470Z,3.10
2023-05-04T18:40:05.878Z,3.10
2023-05-04T18:42:34.157Z,3.22
2023-05-04T18:45:04.138Z,2.60
2023-05-04T18:47:34.097Z,3.38
2023-05-04T18:50:03.825Z,3.90
2023-05-04T18:52:32.703Z,3.70
2023-05-04T18:55:05.987Z,4.25
2023-05-04T18:57:38.046Z,3.53
2023-05-04T19:00:09.294Z,3.45
2023-05-04T19:02:37.304Z,3.60
2023-05-04T19:05:07.829Z,3.25
2023-05-04T19:07:34.695Z,3.28
2023-05-04T19:10:02.148Z,3.85
2023-05-04T19:12:29.505Z,3.88
2023-05-04T19:15:13.638Z,3.67
2023-05-04T19:17:42.503Z,3.22
2023-05-04T19:20:10.360Z,3.03
2023-05-04T19:22:37.639Z,3.40
2023-05-04T19:25:05.296Z,4.90
2023-05-04T19:27:32.514Z,4.20
2023-05-04T19:30:01.214Z,3.92
2023-05-04T19:32:28.659Z,4.15
2023-05-04T19:34:55.845Z,5.78
2023-05-04T19:37:24.684Z,5.28
2023-05-04T19:39:52.865Z,5.28
2023-05-04T19:42:20.040Z,4.40
2023-05-04T19:44:47.961Z,3.80
2023-05-04T19:47:15.263Z,3.80
2023-05-04T19:49:42.490Z,3.85
2023-05-04T19:52:10.772Z,4.75
2023-05-04T19:54:38.656Z,4.88
2023-05-04T19:57:11.129Z,4.40
2023-05-04T19:59:38.434Z,5.00
2023-05-04T20:02:05.470Z,4.93
2023-05-04T20:04:35.525Z,3.92
2023-05-04T20:12:31.623Z,5.93
2023-05-04T20:14:58.470Z,4.80
2023-05-04T20:17:26.288Z,4.63
2023-05-04T20:19:54.470Z,5.07
2023-05-04T20:25:06.454Z,5.32
2023-05-04T20:27:36.221Z,5.65
2023-05-04T20:32:50.492Z,3.95
2023-05-04T20:35:20.098Z,3.35
2023-05-04T20:37:48.250Z,3.78
2023-05-04T20:40:17.699Z,3.47
2023-05-04T20:42:51.059Z,3.70
2023-05-04T20:45:18.388Z,5.10
2023-05-04T20:50:27.366Z,3.63
2023-05-04T20:52:54.261Z,3.90
2023-05-04T20:55:21.546Z,4.20
2023-05-04T20:57:49.857Z,3.47
2023-05-04T21:00:16.980Z,3.75
2023-05-04T21:02:43.803Z,3.75
2023-05-04T21:05:11.244Z,4.10
2023-05-04T21:07:38.085Z,3.55
2023-05-04T21:10:05.413Z,3.97
2023-05-04T21:12:33.425Z,3.67
2023-05-04T21:15:00.167Z,3.80
2023-05-04T21:17:26.918Z,3.60
2023-05-04T21:19:55.317Z,4.30
2023-05-04T21:22:22.037Z,3.58
2023-05-04T21:24:51.246Z,4.78
2023-05-04T21:27:18.483Z,4.45
2023-05-04T21:29:45.447Z,3.83
2023-05-04T21:32:14.299Z,4.13
2023-05-04T21:34:41.029Z,4.15
2023-05-04T21:37:07.821Z,4.78
2023-05-04T21:39:34.665Z,4.47
2023-05-04T21:42:02.501Z,3.90
2023-05-04T21:44:30.633Z,3.63
2023-05-04T21:46:57.437Z,4.00
2023-05-04T21:49:24.825Z,4.03
2023-05-04T21:51:51.571Z,3.83
2023-05-04T21:54:18.572Z,3.78
2023-05-04T21:56:45.495Z,4.30
2023-05-04T21:59:13.432Z,4.07
2023-05-04T22:01:42.581Z,4.20
2023-05-04T22:04:09.665Z,4.18
2023-05-04T22:06:36.795Z,3.85
2023-05-04T22:09:04.488Z,3.95
2023-05-04T22:11:32.496Z,4.38
2023-05-04T22:13:59.311Z,3.97
2023-05-04T22:16:26.208Z,4.03
2023-05-04T22:18:53.546Z,4.50
2023-05-04T22:21:20.486Z,4.95
2023-05-04T22:23:47.806Z,5.07
2023-05-04T22:26:14.524Z,4.63
2023-05-04T22:28:41.391Z,4.47
2023-05-04T22:31:08.770Z,4.07
2023-05-04T22:33:35.588Z,3.95
2023-05-04T22:36:02.426Z,4.32
2023-05-04T22:38:30.270Z,4.05
2023-05-04T22:40:57.040Z,3.95
2023-05-04T22:43:24.945Z,4.15
2023-05-04T22:45:52.352Z,4.75
2023-05-04T22:48:20.111Z,5.63
2023-05-04T22:50:48.610Z,4.90
2023-05-04T22:53:15.811Z,4.95
2023-05-04T22:55:43.409Z,3.92
2023-05-04T22:58:11.378Z,4.82
2023-05-04T23:00:38.307Z,4.93
2023-05-04T23:03:06.809Z,5.38
2023-05-04T23:05:33.679Z,4.85
2023-05-04T23:08:00.948Z,4.20
2023-05-04T23:10:27.845Z,4.38
2023-05-04T23:12:54.675Z,4.22
2023-05-04T23:15:24.443Z,3.83
2023-05-04T23:17:51.340Z,4.93
2023-05-04T23:20:18.256Z,4.47
2023-05-04T23:22:45.102Z,4.30
2023-05-04T23:25:11.946Z,5.55
2023-05-04T23:27:39.536Z,4.95
2023-05-04T23:30:07.525Z,4.80
2023-05-04T23:32:34.746Z,4.70
2023-05-04T23:35:01.498Z,4.78
2023-05-04T23:37:32.075Z,4.55
2023-05-04T23:39:59.625Z,4.60
2023-05-04T23:42:27.891Z,4.90
2023-05-04T23:44:55.780Z,4.70
2023-05-04T23:47:23.538Z,4.88
2023-05-04T23:49:50.725Z,4.78
2023-05-04T23:52:17.569Z,4.53
2023-05-04T23:54:44.882Z,4.90
2023-05-04T23:57:11.700Z,4.68
2023-05-04T23:59:40.386Z,4.88
